createdAt,value
2019-04-03T00:00:39.079Z,997.53
2019-04-03T00:01:39.013Z,997.56
2019-04-03T00:02:38.994Z,997.56
2019-04-03T00:03:38.969Z,997.52
2019-04-03T00:04:39.052Z,997.48
2019-04-03T00:05:38.925Z,997.49
2019-04-03T00:06:38.907Z,997.43
2019-04-03T00:07:38.891Z,997.39
2019-04-03T00:08:38.860Z,997.43
2019-04-03T00:09:38.841Z,997.39
2019-04-03T00:10:38.816Z,997.36
2019-04-03T00:11:39.909Z,997.40
2019-04-03T00:12:40.518Z,997.37
2019-04-03T00:13:41.542Z,997.37
2019-04-03T00:14:38.873Z,997.31
2019-04-03T00:15:38.709Z,997.35
2019-04-03T00:16:38.801Z,997.34
2019-04-03T00:17:38.663Z,997.32
2019-04-03T00:18:38.647Z,997.27
2019-04-03T00:19:38.625Z,997.32
2019-04-03T00:20:38.614Z,997.30
2019-04-03T00:21:38.691Z,997.32
2019-04-03T00:22:38.556Z,997.33
2019-04-03T00:23:38.538Z,997.32
2019-04-03T00:24:38.514Z,997.33
2019-04-03T00:25:38.490Z,997.30
2019-04-03T00:26:38.466Z,997.29
2019-04-03T00:27:38.453Z,997.25
2019-04-03T00:28:38.423Z,997.27
2019-04-03T00:29:38.402Z,997.32
2019-04-03T00:30:38.380Z,997.29
2019-04-03T00:31:38.360Z,997.34
2019-04-03T00:32:38.345Z,997.32
2019-04-03T00:33:38.322Z,997.34
2019-04-03T00:34:38.419Z,997.33
2019-04-03T00:35:38.275Z,997.36
2019-04-03T00:36:38.248Z,997.39
2019-04-03T00:37:38.256Z,997.43
2019-04-03T00:38:38.206Z,997.37
2019-04-03T00:39:38.187Z,997.35
2019-04-03T00:40:38.218Z,997.38
2019-04-03T00:41:38.140Z,997.33
2019-04-03T00:42:38.117Z,997.32
2019-04-03T00:43:38.097Z,997.35
2019-04-03T00:44:38.076Z,997.39
2019-04-03T00:45:38.061Z,997.40
2019-04-03T00:46:38.032Z,997.42
2019-04-03T00:47:38.016Z,997.43
2019-04-03T00:48:37.998Z,997.46
2019-04-03T00:49:37.968Z,997.47
2019-04-03T00:50:37.951Z,997.39
2019-04-03T00:51:37.923Z,997.43
2019-04-03T00:52:37.907Z,997.44
2019-04-03T00:53:37.885Z,997.47
2019-04-03T00:54:37.858Z,997.43
2019-04-03T00:55:37.840Z,997.45
2019-04-03T00:56:37.931Z,997.48
2019-04-03T00:57:37.798Z,997.41
2019-04-03T00:58:37.846Z,997.41
2019-04-03T00:59:37.754Z,997.39
2019-04-03T01:00:37.730Z,997.37
2019-04-03T01:01:37.782Z,997.39
2019-04-03T01:02:37.688Z,997.46
2019-04-03T01:03:37.663Z,997.49
2019-04-03T01:04:37.643Z,997.49
2019-04-03T01:05:37.622Z,997.50
2019-04-03T01:06:37.605Z,997.51
2019-04-03T01:07:37.583Z,997.49
2019-04-03T01:08:37.559Z,997.49
2019-04-03T01:09:37.537Z,997.47
2019-04-03T01:10:37.514Z,997.48
2019-04-03T01:11:37.576Z,997.51
2019-04-03T01:12:37.480Z,997.48
2019-04-03T01:13:37.450Z,997.50
2019-04-03T01:14:37.427Z,997.52
2019-04-03T01:15:37.407Z,997.49
2019-04-03T01:16:37.386Z,997.42
2019-04-03T01:17:37.365Z,997.47
2019-04-03T01:18:37.355Z,997.41
2019-04-03T01:19:37.319Z,997.40
2019-04-03T01:20:37.298Z,997.35
2019-04-03T01:21:37.557Z,997.39
2019-04-03T01:22:37.848Z,997.37
2019-04-03T01:23:38.118Z,997.38
2019-04-03T01:24:38.750Z,997.37
2019-04-03T01:25:39.136Z,997.36
2019-04-03T01:26:37.168Z,997.33
2019-04-03T01:27:37.148Z,997.36
2019-04-03T01:28:37.125Z,997.36
2019-04-03T01:29:37.259Z,997.29
2019-04-03T01:30:37.087Z,997.31
2019-04-03T01:31:37.221Z,997.28
2019-04-03T01:32:37.041Z,997.28
2019-04-03T01:33:37.020Z,997.24
2019-04-03T01:34:37.209Z,997.23
2019-04-03T01:35:37.176Z,997.22
2019-04-03T01:36:37.025Z,997.20
2019-04-03T01:37:36.931Z,997.21
2019-04-03T01:38:36.919Z,997.21
2019-04-03T01:39:36.888Z,997.19
2019-04-03T01:40:36.868Z,997.24
2019-04-03T01:41:37.005Z,997.16
2019-04-03T01:42:36.834Z,997.15
2019-04-03T01:43:36.815Z,997.13
2019-04-03T01:44:36.781Z,997.09
2019-04-03T01:45:36.772Z,997.10
2019-04-03T01:46:36.784Z,997.12
2019-04-03T01:47:36.718Z,997.17
2019-04-03T01:48:36.697Z,997.17
2019-04-03T01:49:36.675Z,997.19
2019-04-03T01:50:36.803Z,997.16
2019-04-03T01:51:36.634Z,997.15
2019-04-03T01:52:36.765Z,997.18
2019-04-03T01:53:36.590Z,997.14
2019-04-03T01:54:36.569Z,997.15
2019-04-03T01:55:36.552Z,997.17
2019-04-03T01:56:36.528Z,997.22
2019-04-03T01:57:37.125Z,997.23
2019-04-03T01:58:36.926Z,997.26
2019-04-03T01:59:37.524Z,997.21
2019-04-03T02:00:37.649Z,997.16
2019-04-03T02:01:36.560Z,997.17
2019-04-03T02:02:36.860Z,997.15
2019-04-03T02:03:36.385Z,997.11
2019-04-03T02:04:36.357Z,997.13
2019-04-03T02:05:36.335Z,997.14
2019-04-03T02:06:36.312Z,997.15
2019-04-03T02:07:36.290Z,997.15
2019-04-03T02:08:36.271Z,997.12
2019-04-03T02:09:36.271Z,997.09
2019-04-03T02:10:36.441Z,997.10
2019-04-03T02:11:36.206Z,997.16
2019-04-03T02:12:36.198Z,997.23
2019-04-03T02:13:36.164Z,997.22
2019-04-03T02:14:36.153Z,997.21
2019-04-03T02:15:36.206Z,997.31
2019-04-03T02:16:36.098Z,997.29
2019-04-03T02:17:36.078Z,997.35
2019-04-03T02:18:36.229Z,997.31
2019-04-03T02:19:36.037Z,997.33
2019-04-03T02:20:36.022Z,997.38
2019-04-03T02:21:36.027Z,997.38
2019-04-03T02:22:35.973Z,997.36
2019-04-03T02:23:35.951Z,997.35
2019-04-03T02:24:35.932Z,997.37
2019-04-03T02:25:35.907Z,997.36
2019-04-03T02:26:35.969Z,997.37
2019-04-03T02:27:35.869Z,997.40
2019-04-03T02:28:35.843Z,997.39
2019-04-03T02:29:35.866Z,997.40
2019-04-03T02:30:36.097Z,997.38
2019-04-03T02:31:35.781Z,997.37
2019-04-03T02:32:35.764Z,997.37
2019-04-03T02:33:35.746Z,997.36
2019-04-03T02:34:36.631Z,997.36
2019-04-03T02:35:39.212Z,997.34
2019-04-03T02:36:36.004Z,997.33
2019-04-03T02:37:35.652Z,997.35
2019-04-03T02:38:35.641Z,997.35
2019-04-03T02:39:35.752Z,997.31
2019-04-03T02:40:35.590Z,997.32
2019-04-03T02:41:36.956Z,997.31
2019-04-03T02:42:35.546Z,997.29
2019-04-03T02:43:35.524Z,997.28
2019-04-03T02:44:35.506Z,997.29
2019-04-03T02:45:35.486Z,997.30
2019-04-03T02:46:35.493Z,997.33
2019-04-03T02:47:35.442Z,997.38
2019-04-03T02:48:38.286Z,997.35
2019-04-03T02:49:35.397Z,997.37
2019-04-03T02:50:35.395Z,997.31
2019-04-03T02:51:35.355Z,997.35
2019-04-03T02:52:35.330Z,997.32
2019-04-03T02:53:35.421Z,997.38
2019-04-03T02:54:36.003Z,997.32
2019-04-03T02:55:39.324Z,997.28
2019-04-03T02:56:35.252Z,997.36
2019-04-03T02:57:35.225Z,997.38
2019-04-03T02:58:35.203Z,997.37
2019-04-03T02:59:35.218Z,997.37
2019-04-03T03:00:35.168Z,997.35
2019-04-03T03:01:38.309Z,997.35
2019-04-03T03:02:35.116Z,997.36
2019-04-03T03:03:35.096Z,997.35
2019-04-03T03:04:35.076Z,997.36
2019-04-03T03:05:35.299Z,997.38
2019-04-03T03:06:35.034Z,997.36
2019-04-03T03:07:36.405Z,997.39
2019-04-03T03:08:34.991Z,997.31
2019-04-03T03:09:35.038Z,997.35
2019-04-03T03:10:34.943Z,997.36
2019-04-03T03:11:35.100Z,997.40
2019-04-03T03:12:34.905Z,997.43
2019-04-03T03:13:35.594Z,997.39
2019-04-03T03:14:38.238Z,997.35
2019-04-03T03:15:34.838Z,997.36
2019-04-03T03:16:34.815Z,997.34
2019-04-03T03:17:35.023Z,997.33
2019-04-03T03:18:34.769Z,997.32
2019-04-03T03:19:34.874Z,997.34
2019-04-03T03:20:39.008Z,997.33
2019-04-03T03:21:34.753Z,997.36
2019-04-03T03:22:34.692Z,997.31
2019-04-03T03:23:34.758Z,997.32
2019-04-03T03:24:34.872Z,997.30
2019-04-03T03:25:34.619Z,997.29
2019-04-03T03:26:37.457Z,997.28
2019-04-03T03:27:34.576Z,997.31
2019-04-03T03:28:34.890Z,997.26
2019-04-03T03:29:34.532Z,997.28
2019-04-03T03:30:44.466Z,997.23
2019-04-03T03:32:01.824Z,997.20
2019-04-03T03:32:36.340Z,997.15
2019-04-03T03:33:37.840Z,997.17
2019-04-03T03:34:51.969Z,997.18
2019-04-03T03:35:40.085Z,997.20
2019-04-03T03:36:34.963Z,997.18
2019-04-03T03:37:35.554Z,997.20
2019-04-03T03:38:38.207Z,997.22
2019-04-03T03:39:34.316Z,997.20
2019-04-03T03:40:34.307Z,997.21
2019-04-03T03:41:34.282Z,997.20
2019-04-03T03:42:34.258Z,997.24
2019-04-03T03:43:37.103Z,997.30
2019-04-03T03:44:34.219Z,997.28
2019-04-03T03:45:34.186Z,997.28
2019-04-03T03:46:34.167Z,997.27
2019-04-03T03:47:35.470Z,997.21
2019-04-03T03:48:34.401Z,997.20
2019-04-03T03:49:34.623Z,997.20
2019-04-03T03:50:34.076Z,997.18
2019-04-03T03:51:34.074Z,997.19
2019-04-03T03:52:36.798Z,997.18
2019-04-03T03:53:34.019Z,997.17
2019-04-03T03:54:33.988Z,997.19
2019-04-03T03:55:33.968Z,997.25
2019-04-03T03:56:33.954Z,997.24
2019-04-03T03:57:37.976Z,997.25
2019-04-03T03:58:33.935Z,997.20
2019-04-03T03:59:33.964Z,997.20
2019-04-03T04:00:33.858Z,997.17
2019-04-03T04:01:34.254Z,997.14
2019-04-03T04:02:34.282Z,997.10
2019-04-03T04:03:33.803Z,997.14
2019-04-03T04:04:34.060Z,997.13
2019-04-03T04:05:33.748Z,997.13
2019-04-03T04:06:36.269Z,997.14
2019-04-03T04:07:35.973Z,997.14
2019-04-03T04:08:33.691Z,997.16
2019-04-03T04:09:33.665Z,997.19
2019-04-03T04:10:36.307Z,997.19
2019-04-03T04:11:33.616Z,997.17
2019-04-03T04:12:33.601Z,997.17
2019-04-03T04:13:33.574Z,997.16
2019-04-03T04:14:33.806Z,997.21
2019-04-03T04:15:33.533Z,997.20
2019-04-03T04:16:37.087Z,997.25
2019-04-03T04:17:33.639Z,997.27
2019-04-03T04:18:33.461Z,997.30
2019-04-03T04:19:33.527Z,997.32
2019-04-03T04:20:36.624Z,997.27
2019-04-03T04:21:33.653Z,997.22
2019-04-03T04:22:33.792Z,997.29
2019-04-03T04:23:33.354Z,997.30
2019-04-03T04:24:33.451Z,997.36
2019-04-03T04:25:33.313Z,997.35
2019-04-03T04:26:33.287Z,997.28
2019-04-03T04:27:35.700Z,997.28
2019-04-03T04:28:33.244Z,997.26
2019-04-03T04:29:33.245Z,997.25
2019-04-03T04:30:33.197Z,997.30
2019-04-03T04:31:33.179Z,997.30
2019-04-03T04:32:33.301Z,997.28
2019-04-03T04:33:33.140Z,997.33
2019-04-03T04:34:33.110Z,997.29
2019-04-03T04:35:33.089Z,997.31
2019-04-03T04:36:33.065Z,997.33
2019-04-03T04:37:33.226Z,997.35
2019-04-03T04:38:33.022Z,997.40
2019-04-03T04:39:33.006Z,997.46
2019-04-03T04:40:32.978Z,997.46
2019-04-03T04:41:33.176Z,997.45
2019-04-03T04:42:34.615Z,997.49
2019-04-03T04:43:32.912Z,997.44
2019-04-03T04:44:32.891Z,997.46
2019-04-03T04:45:33.465Z,997.52
2019-04-03T04:46:32.845Z,997.53
2019-04-03T04:47:32.826Z,997.48
2019-04-03T04:48:33.021Z,997.49
2019-04-03T04:49:32.783Z,997.48
2019-04-03T04:50:32.956Z,997.48
2019-04-03T04:51:32.737Z,997.44
2019-04-03T04:52:32.864Z,997.45
2019-04-03T04:53:32.693Z,997.41
2019-04-03T04:54:32.754Z,997.39
2019-04-03T04:55:34.506Z,997.40
2019-04-03T04:56:32.627Z,997.38
2019-04-03T04:57:32.613Z,997.36
2019-04-03T04:58:32.584Z,997.35
2019-04-03T04:59:32.570Z,997.38
2019-04-03T05:00:32.541Z,997.36
2019-04-03T05:01:32.518Z,997.34
2019-04-03T05:02:32.504Z,997.34
2019-04-03T05:03:32.469Z,997.35
2019-04-03T05:04:32.449Z,997.38
2019-04-03T05:05:32.474Z,997.32
2019-04-03T05:06:32.407Z,997.33
2019-04-03T05:07:32.504Z,997.27
2019-04-03T05:08:32.948Z,997.27
2019-04-03T05:09:34.431Z,997.26
2019-04-03T05:10:32.323Z,997.30
2019-04-03T05:11:32.296Z,997.32
2019-04-03T05:12:32.272Z,997.32
2019-04-03T05:13:32.251Z,997.32
2019-04-03T05:14:32.263Z,997.37
2019-04-03T05:15:32.214Z,997.31
2019-04-03T05:16:32.272Z,997.32
2019-04-03T05:17:32.164Z,997.31
2019-04-03T05:18:32.140Z,997.27
2019-04-03T05:19:32.118Z,997.26
2019-04-03T05:20:32.096Z,997.20
2019-04-03T05:21:32.077Z,997.20
2019-04-03T05:22:32.059Z,997.24
2019-04-03T05:23:32.030Z,997.26
2019-04-03T05:24:32.008Z,997.30
2019-04-03T05:25:32.163Z,997.31
2019-04-03T05:26:32.720Z,997.30
2019-04-03T05:27:34.405Z,997.22
2019-04-03T05:28:34.036Z,997.24
2019-04-03T05:29:32.857Z,997.23
2019-04-03T05:30:31.878Z,997.22
2019-04-03T05:31:31.941Z,997.26
2019-04-03T05:32:31.893Z,997.28
2019-04-03T05:33:32.039Z,997.28
2019-04-03T05:34:31.803Z,997.25
2019-04-03T05:35:31.774Z,997.28
2019-04-03T05:36:31.769Z,997.30
2019-04-03T05:37:31.729Z,997.29
2019-04-03T05:38:31.702Z,997.32
2019-04-03T05:39:31.678Z,997.29
2019-04-03T05:40:31.656Z,997.30
2019-04-03T05:41:31.640Z,997.27
2019-04-03T05:42:31.616Z,997.29
2019-04-03T05:43:31.595Z,997.24
2019-04-03T05:44:33.462Z,997.24
2019-04-03T05:45:34.482Z,997.25
2019-04-03T05:46:31.526Z,997.21
2019-04-03T05:47:31.503Z,997.20
2019-04-03T05:48:31.480Z,997.22
2019-04-03T05:49:31.689Z,997.25
2019-04-03T05:50:31.447Z,997.28
2019-04-03T05:51:31.449Z,997.29
2019-04-03T05:52:32.989Z,997.33
2019-04-03T05:53:31.462Z,997.35
2019-04-03T05:54:31.361Z,997.36
2019-04-03T05:55:31.327Z,997.39
2019-04-03T05:56:31.310Z,997.40
2019-04-03T05:57:31.439Z,997.40
2019-04-03T05:58:31.273Z,997.46
2019-04-03T05:59:33.457Z,997.49
2019-04-03T06:00:31.221Z,997.47
2019-04-03T06:01:31.349Z,997.46
2019-04-03T06:02:31.176Z,997.42
2019-04-03T06:03:40.466Z,997.43
2019-04-03T06:04:31.132Z,997.40
2019-04-03T06:05:31.313Z,997.38
2019-04-03T06:06:31.088Z,997.35
2019-04-03T06:07:31.082Z,997.36
2019-04-03T06:08:33.945Z,997.33
2019-04-03T06:09:31.025Z,997.39
2019-04-03T06:10:32.477Z,997.37
2019-04-03T06:11:31.087Z,997.40
2019-04-03T06:12:30.957Z,997.42
2019-04-03T06:13:31.072Z,997.49
2019-04-03T06:14:31.143Z,997.50
2019-04-03T06:15:30.891Z,997.52
2019-04-03T06:16:31.060Z,997.49
2019-04-03T06:17:31.010Z,997.44
2019-04-03T06:18:32.025Z,997.48
2019-04-03T06:19:30.803Z,997.49
2019-04-03T06:20:30.788Z,997.44
2019-04-03T06:21:30.761Z,997.44
2019-04-03T06:22:30.739Z,997.48
2019-04-03T06:23:30.718Z,997.49
2019-04-03T06:24:30.695Z,997.49
2019-04-03T06:25:31.341Z,997.49
2019-04-03T06:26:30.796Z,997.49
2019-04-03T06:27:30.923Z,997.48
2019-04-03T06:28:30.609Z,997.47
2019-04-03T06:29:30.588Z,997.44
2019-04-03T06:30:30.565Z,997.45
2019-04-03T06:31:30.555Z,997.44
2019-04-03T06:32:30.526Z,997.46
2019-04-03T06:33:31.691Z,997.49
2019-04-03T06:34:30.478Z,997.42
2019-04-03T06:35:30.455Z,997.44
2019-04-03T06:36:30.433Z,997.45
2019-04-03T06:37:30.415Z,997.43
2019-04-03T06:38:30.389Z,997.42
2019-04-03T06:39:31.504Z,997.41
2019-04-03T06:40:30.362Z,997.42
2019-04-03T06:41:30.474Z,997.50
2019-04-03T06:42:30.303Z,997.53
2019-04-03T06:43:30.787Z,997.56
2019-04-03T06:44:30.429Z,997.61
2019-04-03T06:45:30.253Z,997.63
2019-04-03T06:46:30.517Z,997.57
2019-04-03T06:47:32.240Z,997.58
2019-04-03T06:48:30.191Z,997.63
2019-04-03T06:49:30.158Z,997.64
2019-04-03T06:50:30.129Z,997.65
2019-04-03T06:51:30.113Z,997.62
2019-04-03T06:52:30.087Z,997.64
2019-04-03T06:53:30.162Z,997.59
2019-04-03T06:54:31.931Z,997.58
2019-04-03T06:55:30.252Z,997.59
2019-04-03T06:56:29.999Z,997.55
2019-04-03T06:57:29.986Z,997.55
2019-04-03T06:58:38.020Z,997.50
2019-04-03T06:59:29.949Z,997.49
2019-04-03T07:00:30.005Z,997.50
2019-04-03T07:01:29.890Z,997.51
2019-04-03T07:02:31.996Z,997.54
2019-04-03T07:03:29.849Z,997.51
2019-04-03T07:04:29.829Z,997.49
2019-04-03T07:05:29.804Z,997.51
2019-04-03T07:06:29.779Z,997.52
2019-04-03T07:07:34.396Z,997.51
2019-04-03T07:08:34.936Z,997.54
2019-04-03T07:09:35.560Z,997.53
2019-04-03T07:10:29.697Z,997.50
2019-04-03T07:11:29.671Z,997.51
2019-04-03T07:12:29.757Z,997.47
2019-04-03T07:13:30.134Z,997.44
2019-04-03T07:14:29.612Z,997.46
2019-04-03T07:15:29.586Z,997.43
2019-04-03T07:16:29.563Z,997.41
2019-04-03T07:17:31.393Z,997.45
2019-04-03T07:18:29.519Z,997.50
2019-04-03T07:19:29.505Z,997.50
2019-04-03T07:20:29.652Z,997.53
2019-04-03T07:21:29.456Z,997.52
2019-04-03T07:22:29.676Z,997.52
2019-04-03T07:23:30.207Z,997.51
2019-04-03T07:24:29.817Z,997.51
2019-04-03T07:25:29.368Z,997.52
2019-04-03T07:26:29.432Z,997.53
2019-04-03T07:27:29.326Z,997.51
2019-04-03T07:28:30.550Z,997.51
2019-04-03T07:29:29.511Z,997.52
2019-04-03T07:30:29.271Z,997.52
2019-04-03T07:31:29.553Z,997.53
2019-04-03T07:32:29.226Z,997.51
2019-04-03T07:33:29.458Z,997.51
2019-04-03T07:34:29.175Z,997.49
2019-04-03T07:35:29.337Z,997.51
2019-04-03T07:36:29.141Z,997.50
2019-04-03T07:37:29.351Z,997.53
2019-04-03T07:38:29.088Z,997.48
2019-04-03T07:39:29.067Z,997.49
2019-04-03T07:40:29.050Z,997.52
2019-04-03T07:41:29.045Z,997.50
2019-04-03T07:42:29.002Z,997.54
2019-04-03T07:43:28.996Z,997.52
2019-04-03T07:44:29.820Z,997.55
2019-04-03T07:45:28.943Z,997.53
2019-04-03T07:46:28.916Z,997.51
2019-04-03T07:47:28.901Z,997.58
2019-04-03T07:48:28.882Z,997.58
2019-04-03T07:49:28.897Z,997.64
2019-04-03T07:50:28.829Z,997.63
2019-04-03T07:51:28.811Z,997.66
2019-04-03T07:52:28.788Z,997.72
2019-04-03T07:53:28.783Z,997.77
2019-04-03T07:54:28.998Z,997.77
2019-04-03T07:55:28.920Z,997.78
2019-04-03T07:56:28.996Z,997.80
2019-04-03T07:57:29.445Z,997.80
2019-04-03T07:58:30.684Z,997.77
2019-04-03T07:59:28.650Z,997.78
2019-04-03T08:00:28.615Z,997.77
2019-04-03T08:01:28.666Z,997.77
2019-04-03T08:02:28.571Z,997.81
2019-04-03T08:03:28.554Z,997.81
2019-04-03T08:04:28.550Z,997.76
2019-04-03T08:05:30.382Z,997.78
2019-04-03T08:06:28.485Z,997.75
2019-04-03T08:07:28.467Z,997.71
2019-04-03T08:08:28.444Z,997.68
2019-04-03T08:09:28.485Z,997.76
2019-04-03T08:10:30.224Z,997.77
2019-04-03T08:11:28.377Z,997.79
2019-04-03T08:12:28.367Z,997.83
2019-04-03T08:13:28.335Z,997.87
2019-04-03T08:14:28.314Z,997.87
2019-04-03T08:15:28.291Z,997.85
2019-04-03T08:16:28.278Z,997.85
2019-04-03T08:17:28.253Z,997.86
2019-04-03T08:18:28.228Z,997.85
2019-04-03T08:19:28.214Z,997.83
2019-04-03T08:20:30.849Z,997.84
2019-04-03T08:21:30.472Z,997.81
2019-04-03T08:22:28.143Z,997.88
2019-04-03T08:23:28.128Z,997.82
2019-04-03T08:24:28.099Z,997.84
2019-04-03T08:25:28.080Z,997.82
2019-04-03T08:26:28.056Z,997.85
2019-04-03T08:27:28.038Z,997.87
2019-04-03T08:28:30.161Z,997.93
2019-04-03T08:29:28.124Z,998.02
2019-04-03T08:30:27.972Z,998.06
2019-04-03T08:31:28.196Z,998.07
2019-04-03T08:32:27.931Z,998.12
2019-04-03T08:33:28.257Z,998.11
2019-04-03T08:34:30.686Z,998.16
2019-04-03T08:35:27.873Z,998.17
2019-04-03T08:36:28.161Z,998.12
2019-04-03T08:37:30.603Z,998.10
2019-04-03T08:38:27.853Z,998.07
2019-04-03T08:39:27.802Z,998.03
2019-04-03T08:40:27.772Z,998.04
2019-04-03T08:41:27.735Z,998.06
2019-04-03T08:42:28.647Z,998.11
2019-04-03T08:43:27.707Z,998.02
2019-04-03T08:44:27.670Z,998.05
2019-04-03T08:45:27.660Z,998.03
2019-04-03T08:46:27.630Z,998.05
2019-04-03T08:47:27.607Z,998.01
2019-04-03T08:48:27.586Z,998.02
2019-04-03T08:49:27.578Z,998.01
2019-04-03T08:50:28.795Z,997.98
2019-04-03T08:51:27.521Z,998.01
2019-04-03T08:52:27.506Z,998.01
2019-04-03T08:53:27.826Z,997.99
2019-04-03T08:54:27.456Z,998.02
2019-04-03T08:55:27.441Z,998.01
2019-04-03T08:56:27.451Z,998.00
2019-04-03T08:57:27.394Z,998.05
2019-04-03T08:58:27.371Z,998.03
2019-04-03T08:59:28.780Z,998.03
2019-04-03T09:00:27.330Z,998.02
2019-04-03T09:01:27.317Z,998.00
2019-04-03T09:02:27.364Z,997.99
2019-04-03T09:03:27.267Z,998.01
2019-04-03T09:04:27.244Z,998.00
2019-04-03T09:05:27.319Z,998.04
2019-04-03T09:06:27.201Z,998.06
2019-04-03T09:07:27.180Z,998.06
2019-04-03T09:08:27.296Z,998.04
2019-04-03T09:09:29.907Z,998.02
2019-04-03T09:10:27.279Z,998.00
2019-04-03T09:11:27.101Z,998.04
2019-04-03T09:12:27.080Z,998.05
2019-04-03T09:13:27.063Z,998.04
2019-04-03T09:14:27.039Z,998.08
2019-04-03T09:15:28.211Z,998.08
2019-04-03T09:16:27.006Z,998.13
2019-04-03T09:17:26.977Z,998.06
2019-04-03T09:18:29.761Z,998.07
2019-04-03T09:19:27.110Z,998.07
2019-04-03T09:20:26.905Z,998.02
2019-04-03T09:21:26.883Z,998.06
2019-04-03T09:22:26.861Z,998.06
2019-04-03T09:23:26.866Z,998.03
2019-04-03T09:24:29.073Z,998.02
2019-04-03T09:25:26.811Z,998.02
2019-04-03T09:26:26.783Z,998.01
2019-04-03T09:27:26.774Z,998.02
2019-04-03T09:28:26.736Z,998.03
2019-04-03T09:29:26.719Z,998.07
2019-04-03T09:30:26.692Z,998.08
2019-04-03T09:31:26.671Z,998.06
2019-04-03T09:32:26.834Z,998.02
2019-04-03T09:33:29.209Z,998.02
2019-04-03T09:34:28.740Z,997.98
2019-04-03T09:35:26.657Z,997.97
2019-04-03T09:36:26.563Z,997.97
2019-04-03T09:37:26.595Z,997.90
2019-04-03T09:38:26.527Z,997.91
2019-04-03T09:39:26.499Z,997.95
2019-04-03T09:40:26.481Z,997.92
2019-04-03T09:41:26.459Z,997.91
2019-04-03T09:42:26.435Z,997.93
2019-04-03T09:43:26.488Z,997.93
2019-04-03T09:44:26.437Z,997.96
2019-04-03T09:45:28.277Z,997.90
2019-04-03T09:46:26.350Z,997.85
2019-04-03T09:47:26.423Z,997.89
2019-04-03T09:48:26.648Z,997.89
2019-04-03T09:49:26.635Z,997.93
2019-04-03T09:50:26.264Z,997.98
2019-04-03T09:51:26.247Z,997.99
2019-04-03T09:52:38.365Z,998.00
2019-04-03T09:53:26.750Z,997.98
2019-04-03T09:54:28.326Z,997.98
2019-04-03T09:55:26.166Z,997.95
2019-04-03T09:56:26.143Z,997.93
2019-04-03T09:57:26.120Z,997.90
2019-04-03T09:58:26.261Z,997.95
2019-04-03T09:59:26.410Z,997.94
2019-04-03T10:00:26.102Z,997.97
2019-04-03T10:01:26.118Z,997.96
2019-04-03T10:02:26.013Z,997.99
2019-04-03T10:03:26.040Z,998.00
2019-04-03T10:04:26.767Z,997.99
2019-04-03T10:05:26.797Z,997.97
2019-04-03T10:06:25.929Z,997.97
2019-04-03T10:07:25.937Z,997.91
2019-04-03T10:08:25.976Z,997.89
2019-04-03T10:09:25.872Z,997.87
2019-04-03T10:10:26.362Z,997.83
2019-04-03T10:11:25.826Z,997.86
2019-04-03T10:12:25.837Z,997.79
2019-04-03T10:13:26.354Z,997.73
2019-04-03T10:14:28.190Z,997.76
2019-04-03T10:15:26.014Z,997.76
2019-04-03T10:16:25.733Z,997.75
2019-04-03T10:17:25.810Z,997.70
2019-04-03T10:18:25.697Z,997.74
2019-04-03T10:19:25.659Z,997.75
2019-04-03T10:20:25.638Z,997.75
2019-04-03T10:21:25.618Z,997.76
2019-04-03T10:22:25.599Z,997.77
2019-04-03T10:23:28.178Z,997.81
2019-04-03T10:24:25.566Z,997.79
2019-04-03T10:25:25.536Z,997.79
2019-04-03T10:26:25.515Z,997.85
2019-04-03T10:27:25.791Z,997.84
2019-04-03T10:28:25.532Z,997.82
2019-04-03T10:29:25.469Z,997.84
2019-04-03T10:30:25.432Z,997.83
2019-04-03T10:31:25.417Z,997.79
2019-04-03T10:32:27.678Z,997.77
2019-04-03T10:33:25.419Z,997.68
2019-04-03T10:34:25.360Z,997.61
2019-04-03T10:35:25.336Z,997.53
2019-04-03T10:36:25.335Z,997.50
2019-04-03T10:37:25.516Z,997.47
2019-04-03T10:38:25.263Z,997.51
2019-04-03T10:39:25.553Z,997.47
2019-04-03T10:40:25.475Z,997.57
2019-04-03T10:41:27.637Z,997.67
2019-04-03T10:42:25.188Z,997.72
2019-04-03T10:43:25.158Z,997.82
2019-04-03T10:44:25.267Z,997.83
2019-04-03T10:45:25.124Z,997.89
2019-04-03T10:46:25.305Z,997.89
2019-04-03T10:47:34.586Z,997.91
2019-04-03T10:48:25.726Z,997.92
2019-04-03T10:49:25.032Z,997.89
2019-04-03T10:50:25.226Z,997.87
2019-04-03T10:51:25.274Z,997.89
2019-04-03T10:52:24.970Z,997.89
2019-04-03T10:53:24.948Z,997.85
2019-04-03T10:54:25.753Z,997.87
2019-04-03T10:55:27.291Z,997.86
2019-04-03T10:56:24.884Z,997.84
2019-04-03T10:57:25.097Z,997.85
2019-04-03T10:58:24.905Z,997.91
2019-04-03T10:59:24.832Z,997.89
2019-04-03T11:00:28.571Z,997.91
2019-04-03T11:01:24.794Z,997.85
2019-04-03T11:02:24.767Z,997.87
2019-04-03T11:03:26.153Z,997.83
2019-04-03T11:04:25.022Z,997.88
2019-04-03T11:05:25.106Z,997.85
2019-04-03T11:06:24.685Z,997.84
2019-04-03T11:07:24.672Z,997.81
2019-04-03T11:08:24.782Z,997.79
2019-04-03T11:09:24.620Z,997.76
2019-04-03T11:10:25.302Z,997.78
2019-04-03T11:11:24.837Z,997.78
2019-04-03T11:12:24.750Z,997.73
2019-04-03T11:13:24.759Z,997.71
2019-04-03T11:14:24.820Z,997.71
2019-04-03T11:15:24.497Z,997.69
2019-04-03T11:16:24.480Z,997.66
2019-04-03T11:17:25.718Z,997.65
2019-04-03T11:18:24.444Z,997.61
2019-04-03T11:19:24.418Z,997.59
2019-04-03T11:20:24.397Z,997.60
2019-04-03T11:21:24.380Z,997.59
2019-04-03T11:22:24.492Z,997.58
2019-04-03T11:23:36.909Z,997.57
2019-04-03T11:24:24.545Z,997.59
2019-04-03T11:25:24.322Z,997.58
2019-04-03T11:26:25.099Z,997.52
2019-04-03T11:27:40.256Z,997.54
2019-04-03T11:28:24.240Z,997.48
2019-04-03T11:29:24.239Z,997.45
2019-04-03T11:30:24.923Z,997.43
2019-04-03T11:31:28.006Z,997.43
2019-04-03T11:32:24.155Z,997.45
2019-04-03T11:33:24.143Z,997.43
2019-04-03T11:34:24.120Z,997.35
2019-04-03T11:35:24.096Z,997.35
2019-04-03T11:36:26.005Z,997.36
2019-04-03T11:37:24.088Z,997.37
2019-04-03T11:38:27.783Z,997.32
2019-04-03T11:39:24.196Z,997.31
2019-04-03T11:40:25.365Z,997.31
2019-04-03T11:41:24.481Z,997.36
2019-04-03T11:42:28.573Z,997.36
2019-04-03T11:43:24.309Z,997.35
2019-04-03T11:44:23.935Z,997.35
2019-04-03T11:45:23.954Z,997.32
2019-04-03T11:46:24.162Z,997.32
2019-04-03T11:47:23.870Z,997.23
2019-04-03T11:48:26.670Z,997.22
2019-04-03T11:49:23.822Z,997.23
2019-04-03T11:50:25.115Z,997.17
2019-04-03T11:51:23.782Z,997.16
2019-04-03T11:52:23.771Z,997.13
2019-04-03T11:53:23.809Z,997.11
2019-04-03T11:54:23.905Z,997.11
2019-04-03T11:55:23.705Z,997.06
2019-04-03T11:56:23.916Z,997.05
2019-04-03T11:57:26.647Z,997.06
2019-04-03T11:58:23.645Z,997.03
2019-04-03T11:59:24.432Z,996.97
2019-04-03T12:00:23.604Z,996.95
2019-04-03T12:01:23.594Z,996.90
2019-04-03T12:02:23.853Z,996.85
2019-04-03T12:03:23.569Z,996.87
2019-04-03T12:04:23.630Z,996.84
2019-04-03T12:05:23.928Z,996.77
2019-04-03T12:06:23.501Z,996.76
2019-04-03T12:07:25.108Z,996.73
2019-04-03T12:08:23.785Z,996.69
2019-04-03T12:09:23.524Z,996.71
2019-04-03T12:10:25.388Z,996.73
2019-04-03T12:11:23.838Z,996.71
2019-04-03T12:12:23.812Z,996.70
2019-04-03T12:13:23.348Z,996.71
2019-04-03T12:14:23.624Z,996.68
2019-04-03T12:15:23.690Z,996.68
2019-04-03T12:16:24.790Z,996.73
2019-04-03T12:17:23.278Z,996.74
2019-04-03T12:18:23.254Z,996.67
2019-04-03T12:19:23.560Z,996.67
2019-04-03T12:20:23.205Z,996.71
2019-04-03T12:21:23.201Z,996.67
2019-04-03T12:22:23.203Z,996.73
2019-04-03T12:23:25.612Z,996.76
2019-04-03T12:24:23.131Z,996.78
2019-04-03T12:25:23.115Z,996.81
2019-04-03T12:26:23.194Z,996.84
2019-04-03T12:27:23.123Z,996.89
2019-04-03T12:28:23.060Z,996.87